• Join FlightAware (Why Join?)
  • Login
  • US Flag 
04:53PM EDT


 

Airport Tracker/Info


-or-


 

Live Flight TrackerFlight Track Log ✈ SWA1802 ✈ 20-Jun-2013 ✈ KMDW - KLAX

Flight Track Log - Related Links

Times and Time Zones

All times are in EDT time to prevent confusion due to time zone crossing. See the SWA1802 flight status page for this flight to view local times or setup timezone preferences in your user account.

Time Position Orientation Groundspeed Altitude Reporting Facility
EDT Latitude Longitude Course Direction KTS MPH feet Rate Location/Type
06:34PM 41.8000 -87.7000 283° West 214 246 2,500  Level Chicago TRACON
06:35PM 41.8167 -87.7833 285° West 238 274 3,100 720 Climbing Chicago TRACON
06:36PM 41.7881 -87.8633 244° Southwest 240 276 4,000 720 Climbing Chicago Center
06:37PM 41.7772 -87.9569 261° West 258 297 4,600 1,860 Climbing Chicago Center
06:38PM 41.8147 -88.0439 300° West 273 314 7,900 3,360 Climbing Chicago Center
06:39PM 41.9309 -88.6513 283° West  Level FlightAware Approximate
06:39PM 41.8497 -88.1486 294° West 266 306 11,600  Level Chicago Center
06:40PM 41.8319 -88.2564 258° West 294 338 13,500 1,560 Climbing Chicago Center
06:41PM 41.8061 -88.3831 255° West 352 405 14,900 1,860 Climbing Chicago Center
06:42PM 41.7783 -88.5183 255° West 378 435 17,400 2,100 Climbing Chicago Center
06:43PM 41.7494 -88.6558 254° West 385 443 19,300 2,160 Climbing Chicago Center
06:44PM 41.7142 -88.8247 254° West 396 456 21,900 1,920 Climbing Chicago Center
06:45PM 41.6833 -88.9706 254° West 409 471 23,300 1,380 Climbing Chicago Center
06:46PM 41.6517 -89.1231 255° West 425 489 24,800 1,440 Climbing Chicago Center
06:47PM 41.6186 -89.2808 254° West 441 507 26,300 1,500 Climbing Chicago Center
06:48PM 41.5792 -89.4700 254° West 445 512 28,000 1,260 Climbing Chicago Center
06:49PM 41.5461 -89.6194 254° West 452 520 29,000 960 Climbing Chicago Center
06:50PM 41.5114 -89.7844 254° West 460 529 30,100 960 Climbing Chicago Center
06:51PM 41.4744 -89.9511 254° West 468 539 31,100 1,200 Climbing Chicago Center
06:52PM 41.4308 -90.1525 254° West 474 545 32,700 1,440 Climbing Chicago Center
06:53PM 41.4017 -90.3217 257° West 473 544 34,200 1,380 Climbing Chicago Center
06:54PM 41.3767 -90.4831 258° West 458 527 35,600 840 Climbing Chicago Center
06:55PM 41.3475 -90.6433 256° West 450 518 36,000 180 Climbing Chicago Center
06:56PM 41.3256 -90.8022 260° West 443 510 36,000  Level Chicago Center
06:57PM 41.3111 -90.9619 263° West 438 504 36,000  Level Chicago Center
06:58PM 41.2925 -91.1514 263° West 434 499 36,000  Level Chicago Center
06:59PM 41.2769 -91.3097 263° West 433 498 36,000  Level Chicago Center
07:01PM 41.2619 -91.4644 263° West 433 498 36,000  Level Chicago Center
07:02PM 41.2444 -91.6364 262° West 432 497 36,000  Level Chicago Center
07:03PM 41.2281 -91.7947 262° West 435 501 36,000  Level Chicago Center
07:04PM 41.2092 -91.9844 263° West 436 502 36,000  Level Chicago Center
07:05PM 41.1939 -92.1433 263° West 439 505 36,000  Level Chicago Center
07:06PM 41.1769 -92.3014 262° West 439 505 36,000  Level Chicago Center
07:07PM 41.1583 -92.4578 261° West 437 503 36,000  Level Chicago Center
07:08PM 41.1400 -92.6153 261° West 438 504 36,000  Level Chicago Center
07:09PM 41.1197 -92.8025 262° West 434 499 36,000  Level Chicago Center
07:10PM 41.1033 -92.9594 262° West 435 501 36,000  Level Chicago Center
07:11PM 41.0875 -93.1164 262° West 434 499 36,000  Level Chicago Center
07:11PM 41.0786 -93.2078 263° West 426 490 36,000  Level Minneapolis Center
07:12PM 41.0631 -93.3650 263° West 428 493 36,000  Level Minneapolis Center
07:14PM 41.0317 -93.5514 257° West 433 498 36,000  Level Minneapolis Center
07:15PM 41.0061 -93.7014 257° West 430 495 36,000  Level Minneapolis Center
07:16PM 40.9808 -93.8550 258° West 433 498 36,000  Level Minneapolis Center
07:17PM 40.9536 -94.0100 257° West 436 502 36,000  Level Minneapolis Center
07:18PM 40.9267 -94.1650 257° West 437 503 36,000  Level Minneapolis Center
07:19PM 40.8933 -94.3506 257° West 438 504 36,000  Level Minneapolis Center
07:20PM 40.8658 -94.5056 257° West 438 504 36,000  Level Minneapolis Center
07:21PM 40.8347 -94.6744 256° West 439 505 36,000  Level Minneapolis Center
07:22PM 40.8006 -94.8622 257° West 437 503 36,000  Level Minneapolis Center
07:23PM 40.7719 -95.0178 256° West 436 502 36,000  Level Minneapolis Center
07:24PM 40.7436 -95.1717 256° West 432 497 36,000  Level Minneapolis Center
07:25PM 40.7161 -95.3256 257° West 431 496 36,000  Level Minneapolis Center
07:26PM 40.6881 -95.4783 256° West 428 493 36,000  Level Minneapolis Center
07:27PM 40.6536 -95.6608 256° West 426 490 36,000  Level Minneapolis Center
07:28PM 40.6239 -95.8156 256° West 430 495 36,000  Level Minneapolis Center
07:29PM 40.5950 -95.9703 256° West 433 498 36,000  Level Minneapolis Center
07:30PM 40.5653 -96.1247 256° West 435 501 36,000  Level Minneapolis Center
07:32PM 40.5286 -96.3108 256° West 436 502 36,000  Level Minneapolis Center
07:33PM 40.4986 -96.4675 256° West 438 504 36,000  Level Minneapolis Center
07:34PM 40.4675 -96.6219 255° West 437 503 36,000  Level Minneapolis Center
07:35PM 40.4314 -96.8069 256° West 436 502 36,000  Level Minneapolis Center
07:36PM 40.4000 -96.9594 255° West 434 499 36,000  Level Minneapolis Center
07:37PM 40.3697 -97.1136 256° West 435 501 36,000  Level Minneapolis Center
07:38PM 40.3381 -97.2661 255° West 434 499 36,000  Level Minneapolis Center
07:39PM 40.3033 -97.4336 255° West 437 503 36,000  Level Minneapolis Center
07:40PM 40.2725 -97.5883 255° West 438 504 36,000  Level Minneapolis Center
07:41PM 40.2397 -97.7428 255° West 439 505 36,000  Level Minneapolis Center
07:42PM 40.2072 -97.8994 255° West 442 509 36,000  Level Minneapolis Center
07:43PM 40.1733 -98.0567 254° West 447 514 36,000  Level Minneapolis Center
07:44PM 40.1342 -98.2417 255° West 441 507 36,000  Level Minneapolis Center
07:45PM 40.1006 -98.3994 254° West 446 513 36,000  Level Minneapolis Center
07:46PM 40.0681 -98.5542 255° West 443 510 36,000  Level Minneapolis Center
07:47PM 40.0333 -98.7089 254° West 443 510 36,000  Level Minneapolis Center
07:48PM 40.0097 -98.8997 261° West 447 514 36,000  Level Minneapolis Center
07:49PM 39.9989 -99.0603 265° West 443 510 36,000  Level Minneapolis Center
07:51PM 39.9872 -99.2200 265° West 443 510 36,000  Level Minneapolis Center
07:52PM 39.9722 -99.4411 265° West 439 505 36,000  Level Minneapolis Center
07:53PM 39.9639 -99.6000 266° West 439 505 36,000  Level Minneapolis Center
07:54PM 39.9536 -99.7586 265° West 439 505 36,000  Level Minneapolis Center
07:55PM 39.9475 -99.8856 266° West 438 504 36,000  Level Minneapolis Center
07:56PM 39.9378 -100.0753 266° West 437 503 36,000  Level Minneapolis Center
07:57PM 39.9339 -100.2325 268° West 435 501 36,000  Level Minneapolis Center
07:58PM 39.9303 -100.4219 269° West 434 499 36,000  Level Minneapolis Center
07:59PM 39.9264 -100.6067 268° West 436 502 36,000  Level Denver Center
08:00PM 39.9242 -100.7561 269° West 432 497 36,000  Level Denver Center
08:01PM 39.9228 -100.9319 269° West 433 498 36,000  Level Denver Center
08:02PM 39.9225 -101.0817 270° West 432 497 36,000  Level Denver Center
08:03PM 39.9181 -101.2536 268° West 427 491 36,000  Level Denver Center
08:04PM 39.8822 -101.3936 252° West 428 493 36,000  Level Denver Center
08:05PM 39.8364 -101.5528 249° West 423 487 36,000  Level Denver Center
08:06PM 39.7972 -101.6892 250° West 420 483 36,000  Level Denver Center
08:07PM 39.7508 -101.8519 250° West 429 494 36,000  Level Denver Center
08:08PM 39.7111 -101.9928 250° West 433 498 36,000  Level Denver Center
08:09PM 39.6650 -102.1558 250° West 431 496 36,000  Level Denver Center
08:10PM 39.6233 -102.2956 249° West 433 498 36,000  Level Denver Center
08:11PM 39.5806 -102.4472 250° West 432 497 36,000  Level Denver Center
08:12PM 39.5381 -102.5897 249° West 426 490 36,000  Level Denver Center
08:14PM 39.4975 -102.7308 250° West 421 484 36,000  Level Denver Center
08:15PM 39.4536 -102.8736 248° West 425 489 36,000  Level Denver Center
08:16PM 39.4042 -103.0433 249° West 422 486 36,000  Level Denver Center
08:17PM 39.3603 -103.1847 248° West 423 487 36,000  Level Denver Center
08:18PM 39.3150 -103.3264 248° West 425 489 36,000  Level Denver Center
08:19PM 39.2711 -103.4689 248° West 427 491 36,000 300 Level Denver Center
08:20PM 39.2300 -103.6117 250° West 425 489 36,700 480 Climbing Denver Center
08:21PM 39.1861 -103.7511 248° West 421 484 37,100 600 Climbing Denver Center
08:22PM 39.1433 -103.8892 248° West 416 479 38,000 420 Climbing Denver Center
08:23PM 39.0911 -104.0564 248° West 417 480 38,000  Level Denver Center
08:24PM 39.0494 -104.1936 249° West 412 474 38,000  Level Denver Center
08:25PM 39.0056 -104.3314 248° West 414 476 38,000  Level Denver Center
08:26PM 38.9633 -104.4675 248° West 411 473 38,000  Level Denver Center
08:27PM 38.9194 -104.6061 248° West 417 480 38,000  Level Denver Center
08:28PM 38.8783 -104.7381 248° West 402 463 38,000  Level Denver Center
08:29PM 38.8292 -104.8928 248° West 391 450 38,000  Level Denver Center
08:30PM 38.7878 -105.0194 247° West 387 445 38,000  Level Denver Center
08:31PM 38.7469 -105.1483 248° West 388 447 38,000  Level Denver Center
08:32PM 38.7047 -105.2817 248° West 402 463 38,000  Level Denver Center
08:33PM 38.6611 -105.4133 247° West 404 465 38,000  Level Denver Center
08:34PM 38.6178 -105.5469 247° West 405 466 38,000  Level Denver Center
08:35PM 38.5736 -105.6797 247° West 406 467 38,000  Level Denver Center
08:36PM 38.5231 -105.8356 248° West 407 468 38,000  Level Denver Center
08:37PM 38.4806 -105.9647 247° West 412 474 38,000  Level Denver Center
08:38PM 38.4314 -106.1133 247° West 408 470 38,000  Level Denver Center
08:39PM 38.3886 -106.2378 246° West 408 470 38,000  Level Denver Center
08:40PM 38.3447 -106.3703 247° West 406 467 38,000  Level Denver Center
08:41PM 38.2931 -106.5222 247° West 405 466 38,000  Level Denver Center
08:42PM 38.2500 -106.6494 247° West 405 466 38,000  Level Denver Center
08:44PM 38.1994 -106.7972 247° West 408 470 38,000  Level Denver Center
08:45PM 38.1542 -106.9283 246° West 411 473 38,000  Level Denver Center
08:46PM 38.1089 -107.0611 247° West 409 471 38,000  Level Denver Center
08:47PM 38.0617 -107.2019 247° West 408 470 38,000  Level Denver Center
08:48PM 38.0094 -107.3497 246° West 409 471 38,000  Level Denver Center
08:49PM 37.9650 -107.4758 246° West 411 473 38,000  Level Denver Center
08:50PM 37.9222 -107.6033 247° West 411 473 38,000  Level Denver Center
08:51PM 37.8689 -107.7511 245° Southwest 413 475 38,000  Level Denver Center
08:52PM 37.8250 -107.8783 246° West 412 474 38,000  Level Denver Center
08:53PM 37.7722 -108.0267 246° West 415 478 38,000  Level Denver Center
08:54PM 37.7278 -108.1542 246° West 415 478 38,000  Level Denver Center
08:55PM 37.6739 -108.3033 246° West 417 480 38,000  Level Denver Center
08:56PM 37.6275 -108.4297 245° Southwest 416 479 38,000  Level Denver Center
08:57PM 37.5744 -108.5808 246° West 421 484 38,000  Level Denver Center
08:58PM 37.5289 -108.7053 245° Southwest 414 476 38,000  Level Denver Center
08:59PM 37.4750 -108.8486 245° Southwest 409 471 38,000  Level Denver Center
09:00PM 37.4297 -108.9736 246° West 410 472 38,000  Level Denver Center
09:01PM 37.3761 -109.1208 245° Southwest 415 478 38,000  Level Denver Center
09:02PM 37.3297 -109.2447 245° Southwest 412 474 38,000  Level Denver Center
09:03PM 37.2758 -109.3906 245° Southwest 412 474 38,000  Level Denver Center
09:04PM 37.2303 -109.5144 245° Southwest 411 473 38,000  Level Denver Center
09:05PM 37.1747 -109.6614 245° Southwest 416 479 38,000  Level Denver Center
09:06PM 37.1286 -109.7853 245° Southwest 412 474 38,000  Level Denver Center
09:07PM 37.0733 -109.9297 244° Southwest 414 476 38,000  Level Denver Center
09:08PM 37.0258 -110.0542 244° Southwest 416 479 38,000  Level Denver Center
09:09PM 36.9708 -110.1992 245° Southwest 415 478 38,000  Level Denver Center
09:10PM 36.9217 -110.3286 245° Southwest 413 475 38,000  Level Denver Center
09:11PM 36.8725 -110.4561 244° Southwest 409 471 38,000  Level Denver Center
09:12PM 36.8233 -110.5833 244° Southwest 408 470 38,000  Level Denver Center
09:14PM 36.7731 -110.7119 244° Southwest 411 473 38,000  Level Denver Center
09:15PM 36.7231 -110.8408 244° Southwest 413 475 38,000  Level Denver Center
09:16PM 36.6628 -110.9958 244° Southwest 415 478 38,000  Level Denver Center
09:17PM 36.6125 -111.1256 244° Southwest 415 478 38,000  Level Denver Center
09:18PM 36.5619 -111.2542 244° Southwest 415 478 38,000  Level Denver Center
09:19PM 36.5133 -111.3828 245° Southwest 412 474 38,000  Level Denver Center
09:20PM 36.4628 -111.5097 244° Southwest 410 472 38,000  Level Denver Center
09:21PM 36.4136 -111.6381 245° Southwest 410 472 38,000  Level Denver Center
09:21PM 36.3744 -111.7403 245° Southwest 409 471 38,000  Level Los Angeles Center
09:22PM 36.3256 -111.8656 244° Southwest 405 466 38,000  Level Los Angeles Center
09:24PM 36.2753 -111.9911 244° Southwest 406 467 38,000  Level Los Angeles Center
09:25PM 36.2264 -112.1175 244° Southwest 406 467 38,000  Level Los Angeles Center
09:26PM 36.1717 -112.2569 244° Southwest 417 480 38,000  Level Los Angeles Center
09:27PM 36.1144 -112.4019 244° Southwest 418 481 38,000  Level Los Angeles Center
09:28PM 36.0628 -112.5308 244° Southwest 418 481 38,000  Level Los Angeles Center
09:29PM 36.0225 -112.6331 244° Southwest 415 478 38,000  Level Los Angeles Center
09:30PM 35.9611 -112.7864 244° Southwest 415 478 38,000  Level Los Angeles Center
09:31PM 35.9083 -112.9183 244° Southwest 417 480 38,000  Level Los Angeles Center
09:32PM 35.8586 -113.0433 244° Southwest 414 476 38,000  Level Los Angeles Center
09:33PM 35.8075 -113.1669 243° Southwest 412 474 38,000  Level Los Angeles Center
09:34PM 35.7461 -113.3172 243° Southwest 414 476 38,000  Level Los Angeles Center
09:35PM 35.6953 -113.4436 244° Southwest 417 480 38,000  Level Los Angeles Center
09:36PM 35.6433 -113.5706 243° Southwest 420 483 38,000  Level Los Angeles Center
09:37PM 35.5908 -113.6978 243° Southwest 422 486 38,000  Level Los Angeles Center
09:38PM 35.5389 -113.8222 243° Southwest 416 479 38,000  Level Los Angeles Center
09:39PM 35.4769 -113.9717 243° Southwest 414 476 38,000  Level Los Angeles Center
09:40PM 35.4272 -114.0903 243° Southwest 423 487 38,000  Level Los Angeles Center
09:41PM 35.3739 -114.2178 243° Southwest 421 484 38,000  Level Los Angeles Center
09:42PM 35.3097 -114.3722 243° Southwest 422 486 38,000  Level Los Angeles Center
09:43PM 35.2550 -114.4994 242° Southwest 422 486 38,000  Level Los Angeles Center
09:44PM 35.2011 -114.6264 243° Southwest 421 484 38,000  Level Los Angeles Center
09:45PM 35.1478 -114.7514 242° Southwest 415 478 38,000  Level Los Angeles Center
09:46PM 35.0947 -114.8758 243° Southwest 412 474 38,000  Level Los Angeles Center
09:47PM 35.0411 -115.0008 242° Southwest 413 475 38,000  Level Los Angeles Center
09:48PM 34.9878 -115.1256 242° Southwest 413 475 38,000  Level Los Angeles Center
09:50PM 34.9228 -115.2753 242° Southwest 415 478 38,000  Level Los Angeles Center
09:51PM 34.8586 -115.4236 242° Southwest 414 476 38,000  Level Los Angeles Center
09:52PM 34.8047 -115.5475 242° Southwest 413 475 38,000  Level Los Angeles Center
09:53PM 34.7494 -115.6736 242° Southwest 412 474 38,000  Level Los Angeles Center
09:54PM 34.6964 -115.7967 242° Southwest 412 474 38,000  Level Los Angeles Center
09:55PM 34.6422 -115.9172 241° Southwest 409 471 38,000  Level Los Angeles Center
09:56PM 34.5858 -116.0406 241° Southwest 412 474 38,000 -480 Level Los Angeles Center
09:57PM 34.5311 -116.1628 242° Southwest 413 475 37,100 -1,020 Descending Los Angeles Center
09:58PM 34.4825 -116.2819 244° Southwest 405 466 36,000 -2,280 Descending Los Angeles Center
09:59PM 34.4153 -116.4281 241° Southwest 411 473 32,500 -3,300 Descending Los Angeles Center
10:00PM 34.3589 -116.5536 241° Southwest 420 483 29,200 -2,640 Descending Los Angeles Center
10:01PM 34.3028 -116.6783 241° Southwest 423 487 27,100 -2,160 Descending Los Angeles Center
10:02PM 34.2483 -116.7992 241° Southwest 413 475 24,800 -2,280 Descending Los Angeles Center
10:03PM 34.1956 -116.9153 241° Southwest 403 464 22,500 -2,160 Descending Los Angeles Center
10:04PM 34.1442 -117.0289 241° Southwest 392 451 20,400 -1,920 Descending Los Angeles Center
10:05PM 34.0883 -117.1522 241° Southwest 371 427 18,600 -1,440 Descending Los Angeles Center
10:06PM 34.0486 -117.2489 244° Southwest 332 382 17,500 -1,380 Descending Los Angeles Center
10:07PM 34.0386 -117.3497 263° West 307 353 15,800 -1,800 Descending Los Angeles Center
10:08PM 34.0297 -117.4511 264° West 306 352 13,800 -1,740 Descending Los Angeles Center
10:09PM 34.0336 -117.5481 273° West 295 339 12,300 -1,500 Descending Los Angeles Center
10:10PM 34.0269 -117.6447 265° West 290 334 10,800 -1,440 Descending Los Angeles Center
10:11PM 34.0167 -117.7567 264° West 282 325 9,400 -1,080 Descending Los Angeles Center
10:12PM 34.0092 -117.8417 264° West 264 304 8,600 -1,080 Descending Los Angeles Center
10:13PM 34.0008 -117.9219 263° West 248 285 7,300 -1,260 Descending Los Angeles Center
10:14PM 33.9833 -118.0167 257° West 244 281 5,900 -1,140 Descending Southern California TRACON
10:15PM 33.9833 -118.1000 270° West 238 274 4,900 -1,080 Descending Southern California TRACON
10:16PM 33.9764 -118.1647 263° West 243 280 3,900 -1,200 Descending Los Angeles Center
10:17PM 33.9689 -118.2456 264° West 217 250 2,600 -1,080 Descending Los Angeles Center
10:18PM 33.9628 -118.3039 263° West 188 216 1,700 -840 Descending Los Angeles Center
10:19PM 33.9575 -118.3564 263° West 172 198 900 -780 Descending Los Angeles Center
10:20PM 33.9528 -118.4047 263° West 157 181 100 -780 Descending Los Angeles Center
10:22PM 33.9425 -118.4081 259° West  Level Estimated
10:29PM 33.9425 -118.4081 259° West  Level Estimated